Terminal Aerodrome Forecast
Issued by NWS

Current Version | Previous Version | Text Only | Print | Product List | Glossary On
Versions: 1 2 3 4 5 6 7 8 9 10 11 12 13 14 15 16 17
000
FTUS46 KMTR 161700
TAFSNS
TAF
KSNS 161720Z 1618/1718 29005KT P6SM SKC
     FM162100 29012KT P6SM SKC
     FM170300 29007KT P6SM SKC
     FM170800 VRB03KT P6SM OVC006
     FM171700 VRB03KT P6SM SCT010=

USA.gov is the U.S. government's official web portal to all federal, state and local government web resources and services.